SBEGSBBV

Guest
Details From SBEG - Eduardo Gomes
To SBBV - Boa Vista Intl
Flight Number -
Tags Decoded
Created
Modified
Stats Distance 355 nm / 658 km
Max Altitude 0 ft / 0 m
Waypoints 2
Social Downloads 1
Likes 0
Share VATSIM

Download

Looking for another format? Having issues loading an existing format? Contact us
Advertisement - Login to hide

Notes

Decoded

Route

SBEG SBBV

ID Type Via Altitude Latitude Longitude Leg Dist Tot Dist Heading (true) Name
O SBEG APT - 0 ft / 0 m -3.03858˚ -60.06189˚ - 0 nm - -
O SBBV APT - 0 ft / 0 m 2.84077˚ -60.70090˚ 355 nm 355 nm 354° / 354° -

Altitude Profile

Advertisement - Login to hide

Weather


0- 5 10 15 20 25 30 35+ Temperature / ° C

Clouds and Precipitation
Forecast for 2017-12-15 00:00 UTC. Updated 2 hours ago

Ground ~20,000 ft ~40,000 ft Winds

SBEG

Details ICAO SBEG (MAO)
Name Eduardo Gomes
Region Brazil
Timezone America/Manaus (UTC-4.0)
Stats Elevation 264 ft / 80 m (AMSL)
Location -3.038611° -60.049723°
Runways 1
Magnetic Variation 15.761° W

METAR

SBEG 142100Z 05007KT 9999 -RA VCSH FEW012 SCT020 FEW025TCU BKN0 80 25/24 Q1010

Decode

TAF

TAF SBEG 141600Z 1418/1518 10005KT 9999 SCT015 TN22/1509Z TX30/1517Z PROB30 1418/1421 02005KT 8000 TSRA SCT020 FEW025CB BECMG 1423/1501 00000KT SCT010 BECMG 1503/1505 30002KT BECMG 1507/1509 00000KT 5000 BR BKN007 BECMG 1511/1513 35005KT 9999 SCT012 BECMG 1515/1517 03005KT SCT020 FEW025TCU RMK PCQ

Decode

Departure Runways

ID Width Length Bearing (true) Bearing (mag) Surface Threshold Offset Overrun Length
10 148 ft / 45 m 8,867 ft / 2,703 m 90.13° 105.89° Asphalt 0 ft / 0 m 215 ft / 66 m
28 148 ft / 45 m 8,867 ft / 2,703 m 270.13° 285.89° Asphalt 0 ft / 0 m 250 ft / 76 m

SBBV

Details ICAO SBBV (BVB)
Name Boa Vista Intl
Region Brazil
Timezone America/Boa_Vista (UTC-4.0)
Stats Elevation 275 ft / 84 m (AMSL)
Location 2.846311° -60.690068°
Runways 1
Magnetic Variation 15.418° W

METAR

SBBV 142100Z 09012KT 9999 SCT040 FEW045TCU 34/19 Q1009

Decode

TAF

TAF SBBV 141600Z 1418/1518 09015KT 9999 SCT030 FEW035TCU TX35/1418Z TN26/1508Z BECMG 1419/1421 FEW040 FEW045TCU BECMG 1423/1501 CAVOK BECMG 1509/1511 07015KT 9999 FEW020 BECMG 1515/1517 11010KT SCT040 FEW045TCU RMK PCQ

Decode

Destination Runways

ID Width Length Bearing (true) Bearing (mag) Surface Threshold Offset Overrun Length
08 148 ft / 45 m 8,871 ft / 2,704 m 62.88° 78.30° Asphalt 300 ft / 91 m 0 ft / 0 m
26 148 ft / 45 m 8,871 ft / 2,704 m 242.88° 258.30° Asphalt 300 ft / 91 m 0 ft / 0 m

Approach Navaids

Runway Type Ident Frequency Range Bearing (true) Bearing (mag) Slope Elevation
08 Localiser IBV 109.30 MHz 18 nm / 33 km 62.88° 78.29° - 274 ft / 84 m (AMSL)
08 Glidescope IBV 109.30 MHz 10 nm / 19 km 62.88° 78.29° 3.00° 274 ft / 84 m (AMSL)
08 DME IBV 109.30 MHz 18 nm / 33 km - - - 274 ft / 84 m (AMSL)

Popular Alternatives